Time;durP1;ratioP1;P1;durP2;ratioP2;P2;SDS_P1;SDS_P2;PMS_P1;PMS_P2;Temp;Humidity;BMP_temperature;BMP_pressure;BME280_temperature;BME280_humidity;BME280_pressure;Samples;Min_cycle;Max_cycle;Signal;HPM_P1;HPM_P2
2022/08/15 00:00:09;;;;;;;2.77;1.13;;;21.70;88.00;;;;;;5114175;28;20449;-79
2022/08/15 00:02:36;;;;;;;1.47;1.37;;;21.70;87.70;;;;;;5114224;28;20446;-79
2022/08/15 00:05:05;;;;;;;0.67;0.67;;;21.70;86.20;;;;;;5114116;28;20447;-79
2022/08/15 00:07:31;;;;;;;1.50;1.40;;;21.80;86.60;;;;;;5113863;28;20445;-79
2022/08/15 00:09:58;;;;;;;1.13;1.03;;;21.80;87.10;;;;;;5113694;28;20485;-79
2022/08/15 00:12:25;;;;;;;1.00;0.90;;;21.80;86.90;;;;;;5114121;28;20449;-79
2022/08/15 00:14:52;;;;;;;1.10;1.00;;;21.80;86.60;;;;;;5114030;28;20458;-79
2022/08/15 00:17:20;;;;;;;1.10;0.80;;;21.80;86.60;;;;;;5113660;28;20537;-79
2022/08/15 00:19:48;;;;;;;1.50;1.20;;;21.80;87.10;;;;;;5113910;28;20442;-79
2022/08/15 00:22:17;;;;;;;2.70;1.00;;;21.70;86.90;;;;;;5113808;28;20466;-80
2022/08/15 00:24:45;;;;;;;1.13;1.03;;;21.70;86.90;;;;;;5113850;28;20526;-79
2022/08/15 00:27:12;;;;;;;1.53;0.87;;;21.60;87.80;;;;;;5113871;28;20561;-79
2022/08/15 00:29:39;;;;;;;1.20;1.10;;;21.60;88.40;;;;;;5113465;28;20996;-79
2022/08/15 00:32:08;;;;;;;2.10;1.60;;;21.60;88.80;;;;;;5113737;28;20462;-79
2022/08/15 00:34:35;;;;;;;1.20;1.10;;;21.50;89.10;;;;;;5113787;28;20442;-79
2022/08/15 00:37:03;;;;;;;0.80;0.80;;;21.60;89.80;;;;;;5113777;28;20443;-79
2022/08/15 00:39:32;;;;;;;1.87;1.10;;;21.60;89.50;;;;;;5113443;28;20952;-79
2022/08/15 00:42:00;;;;;;;1.07;1.00;;;21.50;89.40;;;;;;5113727;28;20470;-79
2022/08/15 00:44:30;;;;;;;2.77;1.40;;;21.60;90.00;;;;;;5113735;28;20442;-79
2022/08/15 00:46:59;;;;;;;1.53;0.83;;;21.50;90.00;;;;;;5113729;28;20450;-80
2022/08/15 00:49:29;;;;;;;0.90;0.90;;;21.50;90.30;;;;;;5113529;28;20478;-79
2022/08/15 00:51:59;;;;;;;2.30;1.00;;;21.40;90.40;;;;;;5113269;28;20458;-79
2022/08/15 00:54:29;;;;;;;1.67;1.20;;;21.30;90.70;;;;;;5113710;28;20427;-79
2022/08/15 00:57:03;;;;;;;2.37;1.60;;;21.30;90.80;;;;;;5113328;28;20915;-79
2022/08/15 00:59:34;;;;;;;1.60;1.43;;;21.30;91.10;;;;;;5113360;28;20899;-80
2022/08/15 01:02:04;;;;;;;1.10;0.80;;;21.30;91.00;;;;;;5116011;28;20984;-79
2022/08/15 01:04:31;;;;;;;1.50;1.00;;;21.40;91.10;;;;;;5117269;28;20906;-79
2022/08/15 01:06:58;;;;;;;1.40;1.13;;;21.30;91.30;;;;;;5117590;28;20438;-79
2022/08/15 01:09:26;;;;;;;1.00;0.90;;;21.30;91.60;;;;;;5117291;28;20479;-79
2022/08/15 01:11:57;;;;;;;1.83;1.30;;;21.20;91.80;;;;;;5117085;28;20482;-80
2022/08/15 01:14:25;;;;;;;1.13;1.03;;;21.30;92.00;;;;;;5117349;28;20434;-79
2022/08/15 01:16:53;;;;;;;1.37;0.87;;;21.30;92.00;;;;;;5117277;28;20473;-79
2022/08/15 01:19:21;;;;;;;0.80;0.80;;;21.30;92.10;;;;;;5117202;28;20448;-79
2022/08/15 01:22:11;;;;;;;1.57;0.90;;;21.30;92.30;;;;;;5116791;28;20462;-80
2022/08/15 01:24:53;;;;;;;1.07;0.80;;;21.30;92.40;;;;;;5117184;27;20431;-80
2022/08/15 01:27:22;;;;;;;1.80;1.03;;;21.30;92.60;;;;;;5117110;28;20431;-80
2022/08/15 01:29:52;;;;;;;0.93;0.93;;;21.30;92.70;;;;;;5116654;28;20876;-80
2022/08/15 01:32:19;;;;;;;2.33;0.80;;;21.30;92.80;;;;;;5116913;28;20477;-80
2022/08/15 01:34:45;;;;;;;5.80;0.80;;;21.20;92.90;;;;;;5116921;28;20454;-80
2022/08/15 01:37:13;;;;;;;2.20;1.00;;;21.20;93.10;;;;;;5116852;28;20442;-80
2022/08/15 01:39:44;;;;;;;0.80;0.80;;;21.20;93.20;;;;;;5116838;28;20439;-79
2022/08/15 01:42:16;;;;;;;0.63;0.63;;;21.10;93.40;;;;;;5116481;28;20466;-79
2022/08/15 01:44:45;;;;;;;1.43;0.80;;;21.10;93.60;;;;;;5116441;28;20910;-79
2022/08/15 01:47:19;;;;;;;0.73;0.73;;;21.00;93.80;;;;;;5116675;28;20461;-79
2022/08/15 01:49:54;;;;;;;0.70;0.60;;;21.00;93.90;;;;;;5116294;28;20991;-79
2022/08/15 01:52:24;;;;;;;0.97;0.73;;;21.00;94.10;;;;;;5116859;28;20471;-79
2022/08/15 01:54:55;;;;;;;0.80;0.80;;;21.00;94.30;;;;;;5116872;28;20422;-79
2022/08/15 01:57:24;;;;;;;0.80;0.80;;;21.00;94.40;;;;;;5116738;28;20431;-79
2022/08/15 01:59:56;;;;;;;1.40;0.90;;;20.90;94.50;;;;;;5116414;28;20446;-80
2022/08/15 02:02:25;;;;;;;0.70;0.70;;;20.90;94.70;;;;;;5115962;28;20467;-80
2022/08/15 02:04:51;;;;;;;1.57;1.00;;;21.00;95.10;;;;;;5116365;28;20815;-80
2022/08/15 02:07:24;;;;;;;0.77;0.77;;;21.00;95.00;;;;;;5116184;28;20463;-79
2022/08/15 02:09:51;;;;;;;1.57;1.10;;;21.00;94.90;;;;;;5115687;28;20981;-79
2022/08/15 02:12:20;;;;;;;1.10;1.00;;;21.00;95.20;;;;;;5115569;28;20471;-79
2022/08/15 02:14:48;;;;;;;1.57;0.90;;;21.00;95.20;;;;;;5117015;28;20450;-79
2022/08/15 02:17:16;;;;;;;1.30;1.20;;;21.00;95.50;;;;;;5116096;28;20447;-80
2022/08/15 02:19:46;;;;;;;1.03;0.60;;;21.00;95.50;;;;;;5115720;28;20930;-79
2022/08/15 02:22:14;;;;;;;0.50;0.50;;;21.00;95.70;;;;;;5115948;28;20470;-79
2022/08/15 02:24:41;;;;;;;0.80;0.67;;;21.00;95.70;;;;;;5115978;28;20446;-79
2022/08/15 02:27:09;;;;;;;4.03;0.90;;;21.00;96.10;;;;;;5115955;28;20813;-79
2022/08/15 02:29:36;;;;;;;1.10;0.70;;;21.00;96.10;;;;;;5115516;28;20989;-79
2022/08/15 02:32:09;;;;;;;1.00;0.90;;;21.00;96.30;;;;;;5115757;28;20475;-79
2022/08/15 02:34:36;;;;;;;1.40;0.57;;;21.00;96.60;;;;;;5115509;28;20912;-79
2022/08/15 02:37:05;;;;;;;1.00;0.87;;;21.10;96.70;;;;;;5115754;28;20451;-79
2022/08/15 02:39:32;;;;;;;1.93;0.70;;;21.00;96.50;;;;;;5115335;28;20957;-79
2022/08/15 02:41:59;;;;;;;1.60;0.80;;;21.00;96.90;;;;;;5115538;28;20458;-79
2022/08/15 02:44:26;;;;;;;2.20;0.90;;;21.00;97.30;;;;;;5115536;28;20450;-79
2022/08/15 02:46:55;;;;;;;1.27;1.00;;;21.00;97.50;;;;;;5115233;28;20454;-79
2022/08/15 02:49:24;;;;;;;1.27;0.90;;;20.90;97.80;;;;;;5115032;28;20504;-79
2022/08/15 02:51:51;;;;;;;1.57;0.80;;;20.90;98.30;;;;;;5115042;28;20861;-79
2022/08/15 02:54:20;;;;;;;1.10;1.00;;;20.90;98.90;;;;;;5115353;28;20443;-79
2022/08/15 02:56:47;;;;;;;1.10;0.80;;;20.80;99.90;;;;;;5114978;28;20964;-79
2022/08/15 02:59:13;;;;;;;2.23;1.00;;;20.80;99.90;;;;;;5115243;28;20446;-79
2022/08/15 03:01:42;;;;;;;1.07;0.77;;;20.80;99.90;;;;;;5115115;28;20478;-79
2022/08/15 03:04:11;;;;;;;0.93;0.80;;;20.70;99.90;;;;;;5115124;28;20450;-79
2022/08/15 03:06:44;;;;;;;0.63;0.60;;;20.60;99.90;;;;;;5115083;28;20450;-79
2022/08/15 03:09:13;;;;;;;1.60;0.83;;;20.60;99.90;;;;;;5115011;28;20466;-79
2022/08/15 03:11:42;;;;;;;1.40;1.13;;;20.60;99.90;;;;;;5114375;28;20490;-79
2022/08/15 03:14:11;;;;;;;1.00;0.80;;;20.50;99.90;;;;;;5114908;28;20454;-80
2022/08/15 03:16:43;;;;;;;0.80;0.80;;;20.30;99.90;;;;;;5114929;28;20415;-80
2022/08/15 03:19:11;;;;;;;1.67;0.80;;;20.10;99.90;;;;;;5114921;28;20428;-80
2022/08/15 03:21:39;;;;;;;0.70;0.70;;;19.90;99.90;;;;;;5114762;28;20463;-80
2022/08/15 03:24:06;;;;;;;1.57;1.00;;;19.70;99.90;;;;;;5113892;28;20447;-80
2022/08/15 03:26:34;;;;;;;2.97;1.03;;;19.50;99.90;;;;;;5114707;28;20451;-80
2022/08/15 03:29:01;;;;;;;1.37;0.80;;;19.50;99.90;;;;;;5114610;28;20489;-80
2022/08/15 03:31:28;;;;;;;0.80;0.60;;;19.40;99.90;;;;;;5114565;28;20490;-80
2022/08/15 03:33:54;;;;;;;0.63;0.60;;;19.40;99.90;;;;;;5114306;28;20943;-80
2022/08/15 03:36:23;;;;;;;0.60;0.60;;;19.40;99.90;;;;;;5114593;28;20542;-80
2022/08/15 03:38:51;;;;;;;1.37;0.60;;;19.40;99.90;;;;;;5114177;28;21029;-80
2022/08/15 03:41:18;;;;;;;0.87;0.50;;;19.50;99.90;;;;;;5114413;28;20467;-80
2022/08/15 03:43:46;;;;;;;0.87;0.60;;;19.40;99.90;;;;;;5114083;28;20825;-80
2022/08/15 03:46:16;;;;;;;0.93;0.90;;;19.50;99.90;;;;;;5114075;28;20443;-80
2022/08/15 03:48:47;;;;;;;5.03;0.87;;;19.50;99.90;;;;;;5114369;28;20431;-80
2022/08/15 03:51:16;;;;;;;0.60;0.50;;;19.60;99.90;;;;;;5114541;28;20463;-79
2022/08/15 03:53:45;;;;;;;0.80;0.80;;;19.60;99.90;;;;;;5114233;28;20443;-79
2022/08/15 03:56:16;;;;;;;0.57;0.57;;;19.60;99.90;;;;;;5114217;28;20435;-79
2022/08/15 03:58:43;;;;;;;1.13;0.50;;;19.60;99.90;;;;;;5113882;28;20443;-79
2022/08/15 04:01:13;;;;;;;0.73;0.50;;;19.60;99.90;;;;;;5114069;28;20564;-80
2022/08/15 04:03:41;;;;;;;2.30;0.70;;;19.60;99.90;;;;;;5114155;28;20447;-80
2022/08/15 04:06:10;;;;;;;0.77;0.77;;;19.60;99.90;;;;;;5113815;28;20814;-80
2022/08/15 04:08:38;;;;;;;1.67;1.47;;;19.60;99.90;;;;;;5113698;28;20443;-80
2022/08/15 04:11:08;;;;;;;0.50;0.50;;;19.60;99.90;;;;;;5113580;28;20487;-80
2022/08/15 04:13:38;;;;;;;0.47;0.40;;;19.60;99.90;;;;;;5113965;28;20443;-79
2022/08/15 04:16:06;;;;;;;0.90;0.60;;;19.70;99.90;;;;;;5114004;28;20431;-80
2022/08/15 04:18:33;;;;;;;2.10;1.37;;;19.70;99.90;;;;;;5113965;28;20446;-80
2022/08/15 04:21:02;;;;;;;1.10;0.50;;;19.70;99.90;;;;;;5114078;28;20459;-80
2022/08/15 04:23:30;;;;;;;1.03;0.50;;;19.70;99.90;;;;;;5113881;28;20446;-79
2022/08/15 04:25:56;;;;;;;1.93;0.87;;;19.70;99.90;;;;;;5113850;28;20451;-80
2022/08/15 04:28:25;;;;;;;0.50;0.50;;;19.60;99.90;;;;;;5113804;28;20462;-80
2022/08/15 04:30:53;;;;;;;0.60;0.50;;;19.50;99.90;;;;;;5113902;28;20482;-79
2022/08/15 04:33:22;;;;;;;0.63;0.50;;;19.60;99.90;;;;;;5113841;28;20455;-79
2022/08/15 04:35:53;;;;;;;0.90;0.63;;;19.50;99.90;;;;;;5116370;28;20446;-79
2022/08/15 04:38:20;;;;;;;0.67;0.60;;;19.50;99.90;;;;;;5118102;28;20427;-79
2022/08/15 04:40:48;;;;;;;1.90;0.70;;;19.50;99.90;;;;;;5117879;28;20467;-79
2022/08/15 04:43:16;;;;;;;0.80;0.60;;;19.60;99.90;;;;;;5117907;28;20450;-79
2022/08/15 04:45:43;;;;;;;1.00;0.60;;;19.50;99.90;;;;;;5117513;28;20938;-79
2022/08/15 04:48:14;;;;;;;0.90;0.70;;;19.50;99.90;;;;;;5117790;28;20442;-79
2022/08/15 04:50:41;;;;;;;1.03;0.47;;;19.50;99.90;;;;;;5117662;28;20482;-79
2022/08/15 04:53:08;;;;;;;1.13;0.50;;;19.50;99.90;;;;;;5117696;28;20446;-79
2022/08/15 04:55:41;;;;;;;2.03;0.60;;;19.50;99.90;;;;;;5117954;28;20427;-79
2022/08/15 04:58:08;;;;;;;0.70;0.50;;;19.50;99.90;;;;;;5117333;28;20438;-79
2022/08/15 05:00:37;;;;;;;0.60;0.50;;;19.50;99.90;;;;;;5117741;28;20459;-79
2022/08/15 05:03:06;;;;;;;0.50;0.43;;;19.50;99.90;;;;;;5117494;28;20478;-79
2022/08/15 05:05:38;;;;;;;0.60;0.60;;;19.60;99.90;;;;;;5117400;28;20942;-79
2022/08/15 05:08:05;;;;;;;0.90;0.90;;;19.60;99.90;;;;;;5117133;28;20890;-79
2022/08/15 05:10:32;;;;;;;0.83;0.60;;;19.60;99.90;;;;;;5117002;28;20494;-79
2022/08/15 05:13:08;;;;;;;0.70;0.70;;;19.60;99.90;;;;;;5117390;28;20441;-79
2022/08/15 05:15:35;;;;;;;0.47;0.47;;;19.60;99.90;;;;;;5117044;28;20959;-79
2022/08/15 05:18:02;;;;;;;0.77;0.70;;;19.50;99.90;;;;;;5116947;27;20821;-79
2022/08/15 05:20:29;;;;;;;4.20;1.60;;;19.50;99.90;;;;;;5117119;28;20463;-79
2022/08/15 05:22:59;;;;;;;0.80;0.80;;;19.50;99.90;;;;;;5117171;28;20454;-79
2022/08/15 05:25:26;;;;;;;4.93;0.63;;;19.40;99.90;;;;;;5116797;27;20805;-79
2022/08/15 05:27:52;;;;;;;0.70;0.40;;;19.30;99.90;;;;;;5116758;28;20942;-79
2022/08/15 05:30:20;;;;;;;0.80;0.60;;;19.30;99.90;;;;;;5116864;28;20474;-79
2022/08/15 05:32:47;;;;;;;1.27;0.50;;;19.20;99.90;;;;;;5116632;28;21023;-80
2022/08/15 05:35:14;;;;;;;0.50;0.50;;;19.10;99.90;;;;;;5116578;28;20950;-79
2022/08/15 05:37:41;;;;;;;2.90;0.93;;;19.10;99.90;;;;;;5116864;28;20451;-79
2022/08/15 05:40:11;;;;;;;0.50;0.50;;;19.00;99.90;;;;;;5116763;28;20542;-79
2022/08/15 05:42:48;;;;;;;0.70;0.43;;;19.00;99.90;;;;;;5116529;28;20439;-79
2022/08/15 05:45:26;;;;;;;0.80;0.40;;;19.10;99.90;;;;;;5116805;28;20435;-79
2022/08/15 05:48:02;;;;;;;1.30;1.07;;;19.00;99.90;;;;;;5115468;28;20529;-79
2022/08/15 05:50:32;;;;;;;0.70;0.50;;;19.00;99.90;;;;;;5116323;28;20861;-79
2022/08/15 05:53:09;;;;;;;0.63;0.50;;;19.00;99.90;;;;;;5116819;28;20437;-79
2022/08/15 05:55:44;;;;;;;0.50;0.50;;;19.10;99.90;;;;;;5116494;28;20427;-79
2022/08/15 05:58:25;;;;;;;0.50;0.50;;;19.10;99.90;;;;;;5116546;28;20423;-79
2022/08/15 06:00:58;;;;;;;0.70;0.43;;;19.10;99.90;;;;;;5116403;28;20462;-79
2022/08/15 06:03:27;;;;;;;0.60;0.60;;;19.20;99.90;;;;;;5116412;28;20439;-79
2022/08/15 06:05:57;;;;;;;0.43;0.43;;;19.30;99.90;;;;;;5116286;28;20451;-79
2022/08/15 06:08:27;;;;;;;0.63;0.50;;;19.30;99.90;;;;;;5116270;27;20454;-79
2022/08/15 06:11:02;;;;;;;0.70;0.40;;;19.40;99.90;;;;;;5115724;28;20522;-79
2022/08/15 06:13:33;;;;;;;1.13;0.70;;;19.40;99.90;;;;;;5115912;28;20790;-78
2022/08/15 06:16:06;;;;;;;0.83;0.50;;;19.50;99.90;;;;;;5116400;28;20439;-79
2022/08/15 06:18:36;;;;;;;1.83;0.70;;;19.60;99.90;;;;;;5116125;28;20431;-79
2022/08/15 06:21:08;;;;;;;0.90;0.77;;;19.70;99.90;;;;;;5115991;28;20459;-79
2022/08/15 06:23:47;;;;;;;0.63;0.50;;;19.70;99.90;;;;;;5116081;28;20430;-79
2022/08/15 06:26:27;;;;;;;0.60;0.50;;;19.80;99.90;;;;;;5115971;28;20427;-79
2022/08/15 06:29:12;;;;;;;0.50;0.50;;;19.90;99.90;;;;;;5115673;28;20906;-79
2022/08/15 06:31:41;;;;;;;0.50;0.40;;;19.90;99.90;;;;;;5115360;28;20490;-79
2022/08/15 06:34:18;;;;;;;1.03;0.40;;;19.90;99.90;;;;;;5116389;28;20443;-79
2022/08/15 06:36:52;;;;;;;0.50;0.50;;;20.10;99.90;;;;;;5115774;28;20431;-79
2022/08/15 06:39:32;;;;;;;0.73;0.50;;;20.20;99.90;;;;;;5115416;28;20431;-79
2022/08/15 06:42:05;;;;;;;2.63;0.60;;;20.50;99.90;;;;;;5115584;28;20455;-79
2022/08/15 06:44:33;;;;;;;0.43;0.43;;;20.80;99.90;;;;;;5115731;28;20775;-79
2022/08/15 06:47:03;;;;;;;1.63;0.57;;;21.00;99.90;;;;;;5116056;28;20471;-79
2022/08/15 06:49:33;;;;;;;1.87;0.60;;;21.20;99.90;;;;;;5115264;28;20899;-79
2022/08/15 06:52:00;;;;;;;0.77;0.43;;;21.40;99.90;;;;;;5115040;28;20998;-79
2022/08/15 06:54:28;;;;;;;0.60;0.50;;;21.60;99.90;;;;;;5115475;28;20446;-79
2022/08/15 06:57:01;;;;;;;0.80;0.70;;;21.70;99.90;;;;;;5115501;28;20447;-80
2022/08/15 06:59:37;;;;;;;2.03;0.70;;;21.70;99.90;;;;;;5115363;28;20500;-79
2022/08/15 07:02:14;;;;;;;1.57;0.70;;;21.90;99.90;;;;;;5115632;28;20461;-79
2022/08/15 07:04:50;;;;;;;0.60;0.50;;;22.00;99.90;;;;;;5115257;28;20437;-79
2022/08/15 07:07:27;;;;;;;0.60;0.60;;;22.20;99.90;;;;;;5115251;28;20453;-79
2022/08/15 07:10:01;;;;;;;0.77;0.60;;;22.40;99.90;;;;;;5115038;28;20514;-79
2022/08/15 07:12:35;;;;;;;0.50;0.50;;;22.50;99.90;;;;;;5115155;28;20431;-79
2022/08/15 07:15:10;;;;;;;0.60;0.50;;;22.60;99.90;;;;;;5115078;28;20438;-79
2022/08/15 07:17:43;;;;;;;0.50;0.40;;;22.70;99.90;;;;;;5115248;28;20431;-81
2022/08/15 07:20:10;;;;;;;0.50;0.50;;;22.60;99.90;;;;;;5114538;28;20426;-81
2022/08/15 07:22:37;;;;;;;1.47;0.50;;;22.70;99.90;;;;;;5115150;28;20431;-81
2022/08/15 07:25:09;;;;;;;0.40;0.40;;;22.90;99.90;;;;;;5114731;28;20446;-81
2022/08/15 07:27:37;;;;;;;0.80;0.70;;;23.10;99.90;;;;;;5114946;28;20467;-81
2022/08/15 07:30:16;;;;;;;0.60;0.60;;;23.30;99.90;;;;;;5114540;28;20442;-82
2022/08/15 07:32:50;;;;;;;0.70;0.60;;;23.30;99.90;;;;;;5115231;27;20839;-82
2022/08/15 07:35:23;;;;;;;0.50;0.50;;;23.50;99.90;;;;;;5114645;28;20457;-82
2022/08/15 07:37:56;;;;;;;0.80;0.80;;;23.50;99.90;;;;;;5114621;28;20199;-81
2022/08/15 07:40:27;;;;;;;0.80;0.77;;;23.60;99.90;;;;;;5114854;28;20243;-82
2022/08/15 07:42:54;;;;;;;1.00;0.70;;;23.50;99.90;;;;;;5114498;28;20423;-82
2022/08/15 07:45:30;;;;;;;1.03;0.60;;;23.50;99.90;;;;;;5114505;28;20434;-81
2022/08/15 07:47:59;;;;;;;0.90;0.70;;;23.60;99.90;;;;;;5114692;27;20525;-82
2022/08/15 07:50:38;;;;;;;0.40;0.40;;;23.50;99.90;;;;;;5113861;28;20652;-82
2022/08/15 07:53:13;;;;;;;1.80;0.60;;;23.60;99.90;;;;;;5114321;28;20204;-82
2022/08/15 07:55:40;;;;;;;2.83;0.50;;;23.80;99.90;;;;;;5114345;28;20194;-82
2022/08/15 07:58:19;;;;;;;1.10;0.60;;;23.90;99.90;;;;;;5113949;28;20201;-82
2022/08/15 08:01:06;;;;;;;0.40;0.30;;;24.00;99.90;;;;;;5113861;28;20217;-82
2022/08/15 08:03:35;;;;;;;0.70;0.60;;;24.10;99.90;;;;;;5114203;28;20184;-82
2022/08/15 08:06:09;;;;;;;0.65;0.50;;;24.20;99.90;;;;;;5114142;28;20212;-79
2022/08/15 08:08:43;;;;;;;0.47;0.40;;;24.30;99.90;;;;;;5113806;28;20702;-79
2022/08/15 08:11:15;;;;;;;0.50;0.50;;;24.60;99.90;;;;;;5113120;28;20234;-79
2022/08/15 08:13:50;;;;;;;0.57;0.57;;;24.70;99.90;;;;;;5114085;28;20284;-79
2022/08/15 08:16:25;;;;;;;0.52;0.47;;;24.70;99.90;;;;;;5114047;28;20189;-79
2022/08/15 08:19:02;;;;;;;0.40;0.40;;;25.00;99.90;;;;;;5114008;28;20215;-79
2022/08/15 08:21:42;;;;;;;1.45;0.50;;;25.20;99.90;;;;;;5113888;28;20220;-79
2022/08/15 08:24:22;;;;;;;0.45;0.40;;;25.00;99.90;;;;;;5113959;28;20664;-79
2022/08/15 08:26:56;;;;;;;0.60;0.50;;;24.80;99.90;;;;;;5113973;28;20227;-82
2022/08/15 08:29:44;;;;;;;0.50;0.50;;;24.70;99.90;;;;;;5114106;28;20227;-82
2022/08/15 08:32:28;;;;;;;1.25;0.65;;;24.60;99.90;;;;;;5113708;28;20225;-82
2022/08/15 08:35:05;;;;;;;0.50;0.40;;;24.80;99.90;;;;;;5113775;28;20189;-82
2022/08/15 08:37:38;;;;;;;0.50;0.50;;;25.10;99.90;;;;;;5113822;28;20189;-82
2022/08/15 08:43:01;;;;;;;0.40;0.40;;;25.30;99.90;;;;;;5114062;28;20181;-82
2022/08/15 08:45:36;;;;;;;0.40;0.35;;;25.30;99.90;;;;;;5113458;28;20646;-83
2022/08/15 08:48:21;;;;;;;0.65;0.50;;;25.50;99.90;;;;;;5113922;28;20185;-82
2022/08/15 08:50:59;;;;;;;0.90;0.52;;;25.50;99.90;;;;;;5113281;28;20228;-82
2022/08/15 08:53:33;;;;;;;0.52;0.43;;;25.70;99.90;;;;;;5113630;28;20639;-82
2022/08/15 08:56:06;;;;;;;0.70;0.70;;;26.00;99.50;;;;;;5113931;28;20196;-81
2022/08/15 08:58:41;;;;;;;0.50;0.50;;;26.20;98.70;;;;;;5113361;28;20667;-83
2022/08/15 09:01:11;;;;;;;0.60;0.60;;;26.20;97.70;;;;;;5113551;28;20254;-82
2022/08/15 09:03:47;;;;;;;0.40;0.40;;;26.40;97.10;;;;;;5113632;28;20189;-78
2022/08/15 09:06:19;;;;;;;0.57;0.47;;;26.50;96.30;;;;;;5113176;28;20350;-78
2022/08/15 09:08:51;;;;;;;0.50;0.50;;;26.60;96.00;;;;;;5113557;28;20193;-77
2022/08/15 09:11:22;;;;;;;1.35;0.80;;;26.70;96.20;;;;;;5113136;28;20320;-78
2022/08/15 09:13:50;;;;;;;0.40;0.40;;;26.90;95.10;;;;;;5113517;28;20195;-78
2022/08/15 09:16:23;;;;;;;0.50;0.50;;;27.20;94.70;;;;;;5113454;28;20201;-77
2022/08/15 09:18:58;;;;;;;0.50;0.50;;;27.20;93.70;;;;;;5113436;28;20181;-78
2022/08/15 09:21:25;;;;;;;0.70;0.70;;;27.20;93.50;;;;;;5113501;28;20269;-78
2022/08/15 09:23:54;;;;;;;0.50;0.50;;;27.40;93.80;;;;;;5117182;28;20201;-78
2022/08/15 09:26:29;;;;;;;0.40;0.40;;;27.20;92.50;;;;;;5117158;28;20246;-78
2022/08/15 09:29:06;;;;;;;0.50;0.50;;;27.10;92.30;;;;;;5117098;28;20184;-78
2022/08/15 09:31:37;;;;;;;0.80;0.50;;;27.20;92.30;;;;;;5116967;28;20344;-78
2022/08/15 09:34:32;;;;;;;0.77;0.40;;;27.30;93.30;;;;;;5116711;28;20189;-77
2022/08/15 09:37:14;;;;;;;0.43;0.43;;;27.40;92.90;;;;;;5116979;28;20275;-82
2022/08/15 09:40:03;;;;;;;0.70;0.70;;;27.40;91.70;;;;;;5117629;28;20185;-86
2022/08/15 09:42:56;;;;;;;0.95;0.63;;;27.30;91.20;;;;;;5116907;28;20195;-85
2022/08/15 09:45:39;;;;;;;0.50;0.50;;;27.20;91.10;;;;;;5117338;28;20192;-82
2022/08/15 09:48:33;;;;;;;0.60;0.60;;;27.30;91.30;;;;;;5116777;28;20192;-84
2022/08/15 09:51:12;;;;;;;0.70;0.63;;;27.70;91.70;;;;;;5116990;28;20626;-84
2022/08/15 09:53:54;;;;;;;0.60;0.60;;;27.90;90.00;;;;;;5116653;28;20200;-85
2022/08/15 09:56:25;;;;;;;0.70;0.70;;;28.00;89.70;;;;;;5117513;28;20249;-83
2022/08/15 09:58:54;;;;;;;0.70;0.70;;;28.10;89.30;;;;;;5116563;28;20193;-86
2022/08/15 10:01:25;;;;;;;0.50;0.50;;;28.30;86.80;;;;;;5117158;28;20589;-83
2022/08/15 10:03:59;;;;;;;0.40;0.40;;;28.50;86.60;;;;;;5116819;28;20180;-84
2022/08/15 10:06:31;;;;;;;0.43;0.43;;;28.40;85.90;;;;;;5117938;27;20196;-87
2022/08/15 10:09:21;;;;;;;0.60;0.60;;;28.50;84.90;;;;;;5119589;28;20199;-80
2022/08/15 10:12:27;;;;;;;0.70;0.60;;;28.70;83.00;;;;;;5115766;28;20233;-81
2022/08/15 10:15:07;;;;;;;1.33;0.60;;;28.60;83.00;;;;;;5115929;28;20655;-81
2022/08/15 10:17:45;;;;;;;0.60;0.45;;;28.70;82.50;;;;;;5116150;28;20632;-80
2022/08/15 10:21:00;;;;;;;0.55;0.55;;;28.80;82.30;;;;;;5116088;28;20188;-80
2022/08/15 10:23:42;;;;;;;0.50;0.50;;;28.90;79.60;;;;;;5116066;28;20185;-81
2022/08/15 10:26:20;;;;;;;0.80;0.57;;;29.00;77.40;;;;;;5115716;28;20185;-81
2022/08/15 10:29:03;;;;;;;0.70;0.70;;;28.90;76.80;;;;;;5115980;28;20188;-81
2022/08/15 10:31:38;;;;;;;0.60;0.60;;;28.50;76.70;;;;;;5115662;28;20224;-81
2022/08/15 10:34:08;;;;;;;0.50;0.50;;;28.30;78.00;;;;;;5115394;28;20188;-81
2022/08/15 10:36:36;;;;;;;0.65;0.65;;;28.30;78.80;;;;;;5115376;28;20279;-80
2022/08/15 10:39:29;;;;;;;0.80;0.70;;;28.50;78.90;;;;;;5115620;28;20198;-82
2022/08/15 10:42:09;;;;;;;0.60;0.60;;;28.80;78.30;;;;;;5115585;28;20215;-78
2022/08/15 10:44:49;;;;;;;0.40;0.40;;;29.30;75.90;;;;;;5115239;28;20203;-77
2022/08/15 10:47:25;;;;;;;0.80;0.50;;;29.50;75.30;;;;;;5115220;28;20646;-83
2022/08/15 10:50:03;;;;;;;0.90;0.70;;;29.70;75.30;;;;;;5115455;28;20188;-78
2022/08/15 10:52:40;;;;;;;0.70;0.50;;;30.00;73.60;;;;;;5115396;28;20209;-77
2022/08/15 10:55:31;;;;;;;0.65;0.65;;;30.30;74.20;;;;;;5115472;28;20196;-77
2022/08/15 10:58:00;;;;;;;0.93;0.60;;;30.50;69.70;;;;;;5111033;28;20249;-77
2022/08/15 11:00:44;;;;;;;1.25;0.50;;;30.50;70.20;;;;;;5114893;28;20570;-78
2022/08/15 11:03:21;;;;;;;0.50;0.50;;;30.70;71.00;;;;;;5115521;28;20557;-78
2022/08/15 11:05:55;;;;;;;0.70;0.63;;;31.00;69.10;;;;;;5114935;28;20646;-78
2022/08/15 11:08:23;;;;;;;0.55;0.55;;;31.30;67.60;;;;;;5114869;28;20221;-77
2022/08/15 11:10:51;;;;;;;0.65;0.60;;;31.40;65.80;;;;;;5114837;28;20240;-77
2022/08/15 11:13:24;;;;;;;0.60;0.60;;;31.30;67.30;;;;;;5114979;27;20231;-77
2022/08/15 11:15:55;;;;;;;4.68;0.93;;;31.20;66.70;;;;;;5115043;27;20252;-78
2022/08/15 11:18:29;;;;;;;0.63;0.63;;;31.10;66.30;;;;;;5114952;28;20194;-78
2022/08/15 11:21:13;;;;;;;0.50;0.50;;;30.90;66.10;;;;;;5115108;28;20222;-77
2022/08/15 11:23:41;;;;;;;0.90;0.70;;;30.80;65.90;;;;;;5114600;28;20195;-78
2022/08/15 11:26:12;;;;;;;0.60;0.60;;;30.60;66.80;;;;;;5114790;28;20292;-78
2022/08/15 11:28:41;;;;;;;0.80;0.80;;;30.70;66.80;;;;;;5114769;28;20193;-78
2022/08/15 11:31:13;;;;;;;0.70;0.60;;;30.50;65.70;;;;;;5114650;28;20318;-78
2022/08/15 11:33:42;;;;;;;0.80;0.80;;;30.50;66.10;;;;;;5114703;28;20181;-78
2022/08/15 11:36:12;;;;;;;0.75;0.60;;;30.60;65.00;;;;;;5114601;28;20207;-78
2022/08/15 11:38:44;;;;;;;0.65;0.65;;;30.50;64.90;;;;;;5114403;28;20613;-78
2022/08/15 11:41:20;;;;;;;1.17;0.70;;;30.60;65.30;;;;;;5114523;28;20269;-78
2022/08/15 11:43:48;;;;;;;0.90;0.77;;;30.50;65.10;;;;;;5113996;28;20646;-78
2022/08/15 11:46:17;;;;;;;0.75;0.60;;;30.50;64.60;;;;;;5113626;28;20692;-78
2022/08/15 11:48:50;;;;;;;0.68;0.60;;;30.50;65.30;;;;;;5114652;28;20213;-78
2022/08/15 11:51:26;;;;;;;0.68;0.60;;;30.30;65.50;;;;;;5115369;28;20225;-78
2022/08/15 11:54:07;;;;;;;1.67;0.70;;;30.10;66.00;;;;;;5114107;28;20553;-78
2022/08/15 11:56:46;;;;;;;1.23;0.80;;;29.70;66.00;;;;;;5113969;28;20564;-78
2022/08/15 11:59:15;;;;;;;0.70;0.70;;;29.20;66.40;;;;;;5114017;28;20199;-78
2022/08/15 12:01:44;;;;;;;0.80;0.70;;;28.90;66.30;;;;;;5114142;28;20219;-78
2022/08/15 12:04:12;;;;;;;0.65;0.65;;;28.60;66.90;;;;;;5115175;28;20285;-78
2022/08/15 12:06:41;;;;;;;0.55;0.55;;;28.40;67.40;;;;;;5114123;28;20255;-78
2022/08/15 12:09:12;;;;;;;1.08;0.90;;;28.30;68.00;;;;;;5114059;28;20201;-77
2022/08/15 12:11:46;;;;;;;0.98;0.98;;;28.50;67.30;;;;;;5113771;28;20715;-78
2022/08/15 12:14:18;;;;;;;2.88;0.65;;;28.50;68.20;;;;;;5114805;28;20220;-78
2022/08/15 12:16:47;;;;;;;0.70;0.70;;;28.40;68.10;;;;;;5114032;28;20188;-78
2022/08/15 12:19:30;;;;;;;0.75;0.75;;;28.30;67.60;;;;;;5113981;28;20197;-77
2022/08/15 12:21:59;;;;;;;1.00;0.70;;;28.40;68.00;;;;;;5113924;28;20578;-77
2022/08/15 12:24:28;;;;;;;0.50;0.50;;;28.40;68.00;;;;;;5113601;27;20232;-77
2022/08/15 12:26:57;;;;;;;1.70;0.70;;;28.30;67.90;;;;;;5113892;28;20252;-77
2022/08/15 12:29:25;;;;;;;0.75;0.65;;;28.30;68.40;;;;;;5113885;28;20620;-77
2022/08/15 12:31:53;;;;;;;0.98;0.93;;;28.30;67.80;;;;;;5113725;28;20227;-77
2022/08/15 12:34:22;;;;;;;0.60;0.60;;;28.10;69.20;;;;;;5113824;28;20224;-77
2022/08/15 12:36:48;;;;;;;1.23;0.82;;;28.10;70.00;;;;;;5113477;28;20671;-77
2022/08/15 12:39:17;;;;;;;1.20;1.08;;;28.00;68.10;;;;;;5113823;28;20295;-77
2022/08/15 12:41:47;;;;;;;1.77;0.70;;;27.90;67.80;;;;;;5113698;28;20220;-77
2022/08/15 12:44:20;;;;;;;1.08;0.68;;;27.90;69.30;;;;;;5113745;28;20211;-77
2022/08/15 12:46:47;;;;;;;0.60;0.52;;;27.90;68.70;;;;;;5113785;28;20185;-77
2022/08/15 12:49:14;;;;;;;0.65;0.65;;;27.90;68.40;;;;;;5113692;28;20211;-77
2022/08/15 12:51:40;;;;;;;3.20;0.70;;;27.70;69.30;;;;;;5113550;28;20220;-77
2022/08/15 12:54:07;;;;;;;2.72;0.60;;;27.60;70.20;;;;;;5113341;28;20208;-77
2022/08/15 12:56:35;;;;;;;1.80;0.70;;;27.50;71.10;;;;;;5115778;28;20204;-77
2022/08/15 12:59:05;;;;;;;0.70;0.60;;;27.40;72.30;;;;;;5117398;28;20660;-77
2022/08/15 13:01:33;;;;;;;1.25;0.80;;;27.30;72.80;;;;;;5117297;28;20217;-77
2022/08/15 13:04:04;;;;;;;0.73;0.60;;;27.20;71.80;;;;;;5117527;28;20595;-77
2022/08/15 13:06:36;;;;;;;0.60;0.60;;;27.20;71.40;;;;;;5117584;27;20259;-77
2022/08/15 13:09:04;;;;;;;1.17;0.60;;;27.10;71.00;;;;;;5117538;28;20619;-77
2022/08/15 13:11:31;;;;;;;0.80;0.80;;;27.00;71.90;;;;;;5116897;28;20236;-77
2022/08/15 13:13:58;;;;;;;0.93;0.82;;;27.00;71.60;;;;;;5117028;28;20824;-77